sensor_id;sensor_type;location;lat;lon;timestamp;pressure;altitude;pressure_sealevel;temperature;humidity
56632;BME280;42503;39.928;-75.152;2023-02-19T00:11:38;102769.75;;;22.62;31.88
56632;BME280;42503;39.928;-75.152;2023-02-19T00:21:40;102784.22;;;22.59;31.70
56632;BME280;42503;39.928;-75.152;2023-02-19T00:31:42;102743.06;;;22.38;31.64
56632;BME280;42503;39.928;-75.152;2023-02-19T00:41:44;102799.91;;;22.48;32.13
56632;BME280;42503;39.928;-75.152;2023-02-19T00:51:46;102787.31;;;22.34;31.97
56632;BME280;42503;39.928;-75.152;2023-02-19T01:01:48;102795.94;;;22.32;32.03
56632;BME280;42503;39.928;-75.152;2023-02-19T01:11:51;102819.38;;;22.31;32.12
56632;BME280;42503;39.928;-75.152;2023-02-19T01:21:52;102822.00;;;22.26;32.06
56632;BME280;42503;39.928;-75.152;2023-02-19T01:31:54;102808.09;;;22.15;31.94
56632;BME280;42503;39.928;-75.152;2023-02-19T01:41:55;102827.22;;;22.11;32.29
56632;BME280;42503;39.928;-75.152;2023-02-19T01:52:05;102862.88;;;22.09;32.22
56632;BME280;42503;39.928;-75.152;2023-02-19T02:02:10;102862.97;;;22.02;32.08
56632;BME280;42503;39.928;-75.152;2023-02-19T02:12:15;102870.63;;;21.95;32.17
56632;BME280;42503;39.928;-75.152;2023-02-19T02:22:58;102887.94;;;21.86;32.64
56632;BME280;42503;39.928;-75.152;2023-02-19T02:43:07;102863.34;;;21.82;32.28
56632;BME280;42503;39.928;-75.152;2023-02-19T02:53:23;102840.81;;;21.72;32.37
56632;BME280;42503;39.928;-75.152;2023-02-19T03:03:46;102839.69;;;21.73;32.45
56632;BME280;42503;39.928;-75.152;2023-02-19T03:13:55;102811.84;;;21.73;32.22
56632;BME280;42503;39.928;-75.152;2023-02-19T03:24:19;102805.91;;;21.70;32.12
56632;BME280;42503;39.928;-75.152;2023-02-19T03:34:51;102809.66;;;21.64;32.56
56632;BME280;42503;39.928;-75.152;2023-02-19T03:45:19;102835.94;;;21.79;32.20
56632;BME280;42503;39.928;-75.152;2023-02-19T03:55:26;102818.88;;;21.88;31.83
56632;BME280;42503;39.928;-75.152;2023-02-19T04:05:36;102798.38;;;21.94;31.74
56632;BME280;42503;39.928;-75.152;2023-02-19T04:15:39;102795.69;;;21.99;31.97
56632;BME280;42503;39.928;-75.152;2023-02-19T04:25:45;102752.72;;;21.83;31.37
56632;BME280;42503;39.928;-75.152;2023-02-19T04:35:47;102779.50;;;21.96;30.79
56632;BME280;42503;39.928;-75.152;2023-02-19T04:45:49;102781.41;;;22.07;30.90
56632;BME280;42503;39.928;-75.152;2023-02-19T04:55:50;102786.97;;;22.07;30.84
56632;BME280;42503;39.928;-75.152;2023-02-19T05:05:54;102785.44;;;21.99;31.16
56632;BME280;42503;39.928;-75.152;2023-02-19T05:15:58;102815.38;;;22.04;30.97
56632;BME280;42503;39.928;-75.152;2023-02-19T05:26:14;102838.50;;;22.04;31.08
56632;BME280;42503;39.928;-75.152;2023-02-19T05:36:20;102833.53;;;22.06;30.65
56632;BME280;42503;39.928;-75.152;2023-02-19T05:46:23;102841.53;;;22.03;30.76
56632;BME280;42503;39.928;-75.152;2023-02-19T06:06:29;102820.69;;;21.94;30.65
56632;BME280;42503;39.928;-75.152;2023-02-19T06:16:31;102812.94;;;21.96;30.89
56632;BME280;42503;39.928;-75.152;2023-02-19T06:26:33;102770.63;;;21.75;30.74
56632;BME280;42503;39.928;-75.152;2023-02-19T06:36:35;102819.00;;;21.93;30.50
56632;BME280;42503;39.928;-75.152;2023-02-19T06:46:39;102823.72;;;21.92;30.86
56632;BME280;42503;39.928;-75.152;2023-02-19T06:56:43;102812.81;;;21.91;30.65
56632;BME280;42503;39.928;-75.152;2023-02-19T07:06:45;102815.59;;;21.91;30.95
56632;BME280;42503;39.928;-75.152;2023-02-19T07:16:46;102817.78;;;21.89;30.56
56632;BME280;42503;39.928;-75.152;2023-02-19T07:26:51;102807.59;;;21.82;30.63
56632;BME280;42503;39.928;-75.152;2023-02-19T07:36:52;102802.63;;;21.85;30.37
56632;BME280;42503;39.928;-75.152;2023-02-19T07:46:53;102800.19;;;21.88;30.59
56632;BME280;42503;39.928;-75.152;2023-02-19T07:57:01;102830.75;;;21.95;30.57
56632;BME280;42503;39.928;-75.152;2023-02-19T08:07:02;102809.91;;;21.97;30.36
56632;BME280;42503;39.928;-75.152;2023-02-19T08:17:08;102832.09;;;22.04;30.14
56632;BME280;42503;39.928;-75.152;2023-02-19T08:27:09;102815.38;;;22.04;30.38
56632;BME280;42503;39.928;-75.152;2023-02-19T08:37:10;102834.63;;;22.05;30.14
56632;BME280;42503;39.928;-75.152;2023-02-19T08:47:12;102703.28;;;21.43;30.37
56632;BME280;42503;39.928;-75.152;2023-02-19T08:57:16;102796.44;;;22.06;30.09
56632;BME280;42503;39.928;-75.152;2023-02-19T09:07:18;102759.50;;;21.87;30.41
56632;BME280;42503;39.928;-75.152;2023-02-19T09:17:20;102751.25;;;21.92;30.39
56632;BME280;42503;39.928;-75.152;2023-02-19T09:27:21;102735.72;;;21.96;30.03
56632;BME280;42503;39.928;-75.152;2023-02-19T09:37:26;102774.63;;;22.03;30.10
56632;BME280;42503;39.928;-75.152;2023-02-19T09:47:29;102772.91;;;22.02;29.97
56632;BME280;42503;39.928;-75.152;2023-02-19T09:57:34;102758.66;;;21.87;30.33
56632;BME280;42503;39.928;-75.152;2023-02-19T10:07:44;102789.53;;;21.97;30.07
56632;BME280;42503;39.928;-75.152;2023-02-19T10:17:46;102765.56;;;21.96;30.30
56632;BME280;42503;39.928;-75.152;2023-02-19T10:27:47;102755.97;;;21.92;30.36
56632;BME280;42503;39.928;-75.152;2023-02-19T10:37:55;102786.63;;;21.92;30.14
56632;BME280;42503;39.928;-75.152;2023-02-19T10:47:58;102773.19;;;21.89;30.58
56632;BME280;42503;39.928;-75.152;2023-02-19T10:58:21;102776.94;;;21.82;30.75
56632;BME280;42503;39.928;-75.152;2023-02-19T11:08:24;102728.00;;;21.87;30.17
56632;BME280;42503;39.928;-75.152;2023-02-19T11:18:31;102717.06;;;21.85;30.19
56632;BME280;42503;39.928;-75.152;2023-02-19T11:28:38;102734.66;;;21.86;30.30
56632;BME280;42503;39.928;-75.152;2023-02-19T11:38:39;102670.56;;;21.86;30.05
56632;BME280;42503;39.928;-75.152;2023-02-19T11:48:58;102672.84;;;21.89;30.33
56632;BME280;42503;39.928;-75.152;2023-02-19T12:19:43;102716.06;;;22.03;30.19
56632;BME280;42503;39.928;-75.152;2023-02-19T12:40:45;102720.06;;;22.07;30.18
56632;BME280;42503;39.928;-75.152;2023-02-19T12:51:02;102727.31;;;22.08;30.36
56632;BME280;42503;39.928;-75.152;2023-02-19T13:01:06;102771.94;;;22.08;30.27
56632;BME280;42503;39.928;-75.152;2023-02-19T13:11:20;102755.22;;;22.08;30.24
56632;BME280;42503;39.928;-75.152;2023-02-19T13:21:25;102774.50;;;22.10;30.42
56632;BME280;42503;39.928;-75.152;2023-02-19T13:42:25;102748.56;;;22.09;31.45
56632;BME280;42503;39.928;-75.152;2023-02-19T14:02:32;102692.53;;;22.11;31.94
56632;BME280;42503;39.928;-75.152;2023-02-19T14:12:35;102700.69;;;22.12;31.88
56632;BME280;42503;39.928;-75.152;2023-02-19T14:32:52;102616.56;;;22.03;32.01
56632;BME280;42503;39.928;-75.152;2023-02-19T14:42:56;102631.13;;;21.94;32.23
56632;BME280;42503;39.928;-75.152;2023-02-19T14:53:05;102669.69;;;21.97;31.98
56632;BME280;42503;39.928;-75.152;2023-02-19T15:03:37;102635.41;;;21.85;32.29
56632;BME280;42503;39.928;-75.152;2023-02-19T15:13:39;102666.69;;;21.87;32.25
56632;BME280;42503;39.928;-75.152;2023-02-19T15:23:45;102664.25;;;21.78;32.33
56632;BME280;42503;39.928;-75.152;2023-02-19T15:33:51;102679.41;;;21.82;32.14
56632;BME280;42503;39.928;-75.152;2023-02-19T15:54:11;102656.31;;;21.99;32.11
56632;BME280;42503;39.928;-75.152;2023-02-19T16:04:17;102615.50;;;22.04;31.91
56632;BME280;42503;39.928;-75.152;2023-02-19T16:24:32;102522.75;;;22.09;31.83
56632;BME280;42503;39.928;-75.152;2023-02-19T16:34:43;102504.19;;;22.15;32.12
56632;BME280;42503;39.928;-75.152;2023-02-19T16:44:46;102469.38;;;22.17;32.01
56632;BME280;42503;39.928;-75.152;2023-02-19T16:54:48;102422.38;;;22.09;32.19
56632;BME280;42503;39.928;-75.152;2023-02-19T17:04:50;102402.44;;;22.17;33.38
56632;BME280;42503;39.928;-75.152;2023-02-19T17:14:54;102346.69;;;22.17;32.71
56632;BME280;42503;39.928;-75.152;2023-02-19T17:25:02;102136.03;;;21.27;32.85
56632;BME280;42503;39.928;-75.152;2023-02-19T17:35:03;102256.97;;;22.20;33.18
56632;BME280;42503;39.928;-75.152;2023-02-19T17:45:05;102219.59;;;22.21;33.15
56632;BME280;42503;39.928;-75.152;2023-02-19T17:55:14;102193.78;;;22.09;33.32
56632;BME280;42503;39.928;-75.152;2023-02-19T18:05:19;102132.78;;;22.13;33.31
56632;BME280;42503;39.928;-75.152;2023-02-19T18:15:24;102139.06;;;22.25;32.99
56632;BME280;42503;39.928;-75.152;2023-02-19T18:25:29;102136.09;;;22.31;32.93
56632;BME280;42503;39.928;-75.152;2023-02-19T18:35:30;102115.97;;;22.29;33.04
56632;BME280;42503;39.928;-75.152;2023-02-19T18:45:32;102122.41;;;22.30;33.15
56632;BME280;42503;39.928;-75.152;2023-02-19T18:55:37;102107.34;;;22.31;33.24
56632;BME280;42503;39.928;-75.152;2023-02-19T19:05:38;102035.06;;;22.24;33.53
56632;BME280;42503;39.928;-75.152;2023-02-19T19:15:42;101977.63;;;22.23;33.50
56632;BME280;42503;39.928;-75.152;2023-02-19T19:25:54;101971.84;;;22.35;33.47
56632;BME280;42503;39.928;-75.152;2023-02-19T19:35:55;101954.88;;;22.37;33.45
56632;BME280;42503;39.928;-75.152;2023-02-19T19:46:02;101941.47;;;22.33;33.02
56632;BME280;42503;39.928;-75.152;2023-02-19T19:56:04;101898.78;;;22.33;33.20
56632;BME280;42503;39.928;-75.152;2023-02-19T20:06:08;101882.59;;;22.30;33.11
56632;BME280;42503;39.928;-75.152;2023-02-19T20:16:09;101854.34;;;22.16;33.16
56632;BME280;42503;39.928;-75.152;2023-02-19T20:26:12;101820.91;;;22.21;33.06
56632;BME280;42503;39.928;-75.152;2023-02-19T20:36:13;101810.28;;;22.13;32.79
56632;BME280;42503;39.928;-75.152;2023-02-19T20:46:15;101773.25;;;22.18;32.97
56632;BME280;42503;39.928;-75.152;2023-02-19T20:56:16;101786.41;;;22.27;32.53
56632;BME280;42503;39.928;-75.152;2023-02-19T21:06:17;101733.66;;;22.21;31.97
56632;BME280;42503;39.928;-75.152;2023-02-19T21:16:19;101710.56;;;22.30;31.97
56632;BME280;42503;39.928;-75.152;2023-02-19T21:26:21;101700.00;;;22.38;32.38
56632;BME280;42503;39.928;-75.152;2023-02-19T21:36:28;101702.28;;;22.46;32.71
56632;BME280;42503;39.928;-75.152;2023-02-19T21:46:30;101687.75;;;22.44;32.83
56632;BME280;42503;39.928;-75.152;2023-02-19T21:56:35;101679.41;;;22.49;33.02
56632;BME280;42503;39.928;-75.152;2023-02-19T22:06:37;101658.50;;;22.56;32.77
56632;BME280;42503;39.928;-75.152;2023-02-19T22:16:40;101635.03;;;22.42;32.52
56632;BME280;42503;39.928;-75.152;2023-02-19T22:26:41;101629.78;;;22.56;32.36
56632;BME280;42503;39.928;-75.152;2023-02-19T22:36:43;101620.28;;;22.57;32.30
56632;BME280;42503;39.928;-75.152;2023-02-19T22:46:50;101616.38;;;22.58;32.25
56632;BME280;42503;39.928;-75.152;2023-02-19T22:56:53;101608.31;;;22.56;32.37
56632;BME280;42503;39.928;-75.152;2023-02-19T23:06:59;101614.16;;;22.55;32.66
56632;BME280;42503;39.928;-75.152;2023-02-19T23:17:01;101607.47;;;22.51;32.44
56632;BME280;42503;39.928;-75.152;2023-02-19T23:27:02;101616.13;;;22.54;32.18
56632;BME280;42503;39.928;-75.152;2023-02-19T23:37:04;101613.03;;;22.51;32.78
56632;BME280;42503;39.928;-75.152;2023-02-19T23:47:07;101619.75;;;22.50;32.73
56632;BME280;42503;39.928;-75.152;2023-02-19T23:57:09;101610.25;;;22.51;32.37
